Time;durP1;ratioP1;P1;durP2;ratioP2;P2;SDS_P1;SDS_P2;PMS_P1;PMS_P2;Temp;Humidity;BMP_temperature;BMP_pressure;BME280_temperature;BME280_humidity;BME280_pressure;Samples;Min_cycle;Max_cycle;Signal;HPM_P1;HPM_P2
2021/12/14 00:01:46;;;;;;;16.80;6.53;;;;;;;10.22;100.00;101834.03;4986386;28;20041;-70
2021/12/14 00:04:31;;;;;;;15.45;5.20;;;;;;;10.09;100.00;101834.22;4989793;28;20034;-70
2021/12/14 00:06:59;;;;;;;16.58;6.05;;;;;;;10.07;100.00;101839.13;4983391;28;20045;-69
2021/12/14 00:09:30;;;;;;;16.85;5.35;;;;;;;10.09;100.00;101832.31;4988990;28;20065;-69
2021/12/14 00:17:18;;;;;;;14.32;5.00;;;;;;;10.05;100.00;101820.63;4990754;28;20042;-70
2021/12/14 00:19:47;;;;;;;15.48;5.13;;;;;;;10.06;100.00;101819.53;4986700;28;20074;-70
2021/12/14 00:22:27;;;;;;;17.65;5.50;;;;;;;10.07;100.00;101818.41;4987190;28;20041;-72
2021/12/14 00:24:53;;;;;;;17.73;5.63;;;;;;;9.98;100.00;101823.81;4986695;28;20038;-70
2021/12/14 00:27:22;;;;;;;12.88;4.95;;;;;;;10.02;100.00;101813.22;4986721;28;20026;-70
2021/12/14 00:29:53;;;;;;;19.88;5.80;;;;;;;10.06;100.00;101816.03;4989752;28;20058;-70
2021/12/14 00:32:23;;;;;;;14.90;5.78;;;;;;;9.99;100.00;101814.63;4980465;28;20122;-71
2021/12/14 00:34:51;;;;;;;13.35;5.18;;;;;;;10.02;100.00;101816.69;4969035;28;20435;-72
2021/12/14 00:37:23;;;;;;;14.40;5.68;;;;;;;10.00;100.00;101810.03;4982559;28;20097;-71
2021/12/14 00:39:51;;;;;;;16.85;5.63;;;;;;;9.94;100.00;101809.44;5007985;28;20038;-71
2021/12/14 00:42:17;;;;;;;11.73;4.47;;;;;;;9.97;100.00;101806.09;4996158;28;20097;-71
2021/12/14 00:44:43;;;;;;;13.02;5.05;;;;;;;10.01;100.00;101795.47;4980315;28;20126;-71
2021/12/14 00:47:09;;;;;;;15.85;5.25;;;;;;;9.97;100.00;101800.72;4980895;28;20081;-71
2021/12/14 00:49:35;;;;;;;15.63;4.90;;;;;;;10.15;100.00;101803.34;4988131;28;20046;-71
2021/12/14 00:52:04;;;;;;;13.80;5.32;;;;;;;10.04;100.00;101795.59;4987770;28;20030;-71
2021/12/14 00:54:30;;;;;;;14.38;4.85;;;;;;;10.03;100.00;101798.63;4984195;28;20042;-71
2021/12/14 00:56:55;;;;;;;16.30;6.07;;;;;;;9.99;100.00;101805.75;4990627;28;20034;-71
2021/12/14 00:59:21;;;;;;;19.58;5.47;;;;;;;10.03;100.00;101820.16;4978957;28;20042;-71
2021/12/14 01:01:55;;;;;;;19.05;5.50;;;;;;;9.98;100.00;101818.44;4986186;28;20117;-71
2021/12/14 01:04:34;;;;;;;16.35;5.03;;;;;;;9.99;100.00;101808.44;4986300;28;20174;-71
2021/12/14 01:07:02;;;;;;;12.48;5.22;;;;;;;9.96;100.00;101815.28;4995785;28;20027;-71
2021/12/14 01:09:33;;;;;;;13.30;5.15;;;;;;;9.97;100.00;101813.38;4984240;28;20173;-71
2021/12/14 01:12:06;;;;;;;16.13;5.20;;;;;;;9.96;100.00;101807.22;4987147;28;20045;-71
2021/12/14 01:14:48;;;;;;;15.25;5.32;;;;;;;9.98;100.00;101823.81;4986835;28;20035;-71
2021/12/14 01:17:40;;;;;;;12.93;5.43;;;;;;;9.96;100.00;101822.56;4988819;28;20041;-71
2021/12/14 01:20:10;;;;;;;15.50;5.03;;;;;;;9.96;100.00;101833.31;4984138;28;20814;-71
2021/12/14 01:25:10;;;;;;;13.75;4.93;;;;;;;10.02;100.00;101832.03;4992759;28;20390;-71
2021/12/14 01:28:02;;;;;;;18.00;5.82;;;;;;;9.91;100.00;101830.81;4979105;28;20125;-71
2021/12/14 01:30:32;;;;;;;16.88;5.68;;;;;;;10.00;100.00;101826.19;4993278;28;20081;-71
2021/12/14 01:33:04;;;;;;;14.30;4.87;;;;;;;9.89;100.00;101822.28;4985449;28;20040;-71
2021/12/14 01:35:33;;;;;;;10.48;4.30;;;;;;;9.93;100.00;101815.91;4995178;28;20027;-73
2021/12/14 01:38:16;;;;;;;13.07;5.78;;;;;;;9.94;100.00;101811.31;4994872;28;20113;-71
2021/12/14 01:40:58;;;;;;;18.23;4.80;;;;;;;9.99;100.00;101811.13;4999258;28;20042;-71
2021/12/14 01:43:50;;;;;;;12.13;4.85;;;;;;;9.90;100.00;101805.00;4990712;28;20161;-71
2021/12/14 01:46:22;;;;;;;10.50;4.63;;;;;;;9.90;100.00;101800.44;4997389;28;20030;-72
2021/12/14 01:48:51;;;;;;;15.55;4.93;;;;;;;10.01;100.00;101806.22;4993507;28;20534;-71
2021/12/14 01:51:27;;;;;;;15.23;5.35;;;;;;;10.06;100.00;101800.69;4996622;28;20034;-71
2021/12/14 01:54:03;;;;;;;11.75;4.68;;;;;;;9.91;100.00;101793.16;4992630;28;20053;-72
2021/12/14 01:56:30;;;;;;;15.70;5.05;;;;;;;9.89;100.00;101798.81;4996050;28;20045;-71
2021/12/14 01:59:04;;;;;;;14.07;4.82;;;;;;;9.80;100.00;101791.91;4994836;28;20110;-71
2021/12/14 02:01:38;;;;;;;15.45;5.25;;;;;;;9.82;100.00;101792.38;4992858;28;20025;-71
2021/12/14 02:04:19;;;;;;;11.48;4.78;;;;;;;9.81;100.00;101790.81;4992225;28;20086;-71
2021/12/14 02:06:57;;;;;;;14.85;4.85;;;;;;;9.82;100.00;101778.91;4992100;28;20145;-71
2021/12/14 02:09:27;;;;;;;17.92;5.35;;;;;;;9.81;100.00;101790.81;4993938;28;20030;-71
2021/12/14 02:11:56;;;;;;;14.70;5.60;;;;;;;9.86;100.00;101772.59;4994350;28;20376;-72
2021/12/14 02:14:23;;;;;;;13.18;4.93;;;;;;;9.91;100.00;101764.31;4977484;28;20387;-71
2021/12/14 02:16:58;;;;;;;11.52;4.72;;;;;;;9.85;100.00;101754.84;4990371;28;20034;-71
2021/12/14 02:19:24;;;;;;;13.20;4.40;;;;;;;9.91;100.00;101742.81;4993067;28;20034;-71
2021/12/14 02:21:52;;;;;;;17.10;5.55;;;;;;;9.94;100.00;101741.38;4993678;28;20030;-71
2021/12/14 02:24:19;;;;;;;13.32;5.07;;;;;;;9.95;100.00;101738.34;4993458;28;20042;-71
2021/12/14 02:26:49;;;;;;;11.80;4.30;;;;;;;9.93;100.00;101734.41;4999304;28;20597;-71
2021/12/14 02:29:32;;;;;;;11.43;4.78;;;;;;;9.85;100.00;101741.41;4993102;28;20041;-71
2021/12/14 02:32:11;;;;;;;15.13;5.00;;;;;;;9.85;100.00;101733.31;4991290;28;20081;-71
2021/12/14 02:34:44;;;;;;;17.73;5.75;;;;;;;9.80;100.00;101736.19;4986321;28;20063;-71
2021/12/14 02:37:11;;;;;;;16.00;4.80;;;;;;;9.87;100.00;101730.34;4986955;28;20030;-71
2021/12/14 02:42:24;;;;;;;13.27;4.38;;;;;;;9.91;100.00;101709.75;4988133;28;20041;-71
2021/12/14 02:44:54;;;;;;;12.02;5.20;;;;;;;9.84;100.00;101706.75;4990515;28;20045;-71
2021/12/14 02:47:22;;;;;;;11.93;4.82;;;;;;;9.78;100.00;101705.34;4990572;28;20050;-71
2021/12/14 02:49:49;;;;;;;10.50;4.85;;;;;;;9.80;100.00;101701.22;4991920;28;20041;-71
2021/12/14 02:52:29;;;;;;;15.02;5.22;;;;;;;9.77;100.00;101701.91;4992427;28;20025;-71
2021/12/14 02:55:04;;;;;;;11.57;4.72;;;;;;;9.77;100.00;101696.50;4988949;28;20097;-71
2021/12/14 02:57:35;;;;;;;13.50;4.70;;;;;;;9.81;100.00;101692.03;4991116;28;20034;-71
2021/12/14 03:00:07;;;;;;;15.93;4.78;;;;;;;9.82;100.00;101704.38;4987589;28;20149;-71
2021/12/14 03:02:36;;;;;;;14.98;5.10;;;;;;;9.77;100.00;101703.78;4991403;28;20471;-71
2021/12/14 03:05:17;;;;;;;8.95;3.97;;;;;;;9.78;100.00;101706.16;4989823;28;20046;-72
2021/12/14 03:07:52;;;;;;;10.88;4.50;;;;;;;9.74;100.00;101709.78;4989244;28;20093;-71
2021/12/14 03:12:57;;;;;;;9.80;4.45;;;;;;;9.69;100.00;101710.78;4989749;28;20028;-71
2021/12/14 03:15:46;;;;;;;12.52;4.80;;;;;;;9.68;100.00;101711.88;4982157;28;20110;-71
2021/12/14 03:18:15;;;;;;;13.70;5.82;;;;;;;9.70;100.00;101708.84;4999454;28;20026;-71
2021/12/14 03:20:48;;;;;;;12.38;4.25;;;;;;;9.82;100.00;101717.03;4994710;28;20177;-72
2021/12/14 03:23:18;;;;;;;12.07;4.93;;;;;;;9.90;100.00;101729.69;4986199;28;20038;-71
2021/12/14 03:25:48;;;;;;;12.20;4.20;;;;;;;9.88;100.00;101713.88;4981603;28;20702;-71
2021/12/14 03:28:16;;;;;;;14.65;4.80;;;;;;;9.82;100.00;101706.28;4996651;28;20030;-71
2021/12/14 03:30:49;;;;;;;15.73;5.18;;;;;;;9.79;100.00;101707.72;4982557;28;20041;-71
2021/12/14 03:33:23;;;;;;;14.35;4.55;;;;;;;9.84;100.00;101696.00;4994091;28;20080;-71
2021/12/14 03:35:56;;;;;;;12.95;5.63;;;;;;;9.77;100.00;101707.28;4989152;28;20117;-71
2021/12/14 03:38:28;;;;;;;14.20;5.13;;;;;;;9.77;100.00;101709.97;4987103;28;20173;-71
2021/12/14 03:41:06;;;;;;;14.40;4.55;;;;;;;9.75;100.00;101719.47;4996696;28;20140;-71
2021/12/14 03:43:36;;;;;;;12.07;4.63;;;;;;;9.70;100.00;101714.25;4992563;28;20371;-72
2021/12/14 03:46:06;;;;;;;9.23;4.30;;;;;;;9.79;100.00;101712.31;4989939;28;20057;-71
2021/12/14 03:48:33;;;;;;;12.13;4.88;;;;;;;9.76;100.00;101711.06;4989971;28;20066;-71
2021/12/14 03:51:20;;;;;;;12.57;5.18;;;;;;;9.72;100.00;101699.38;4988379;28;20030;-71
2021/12/14 03:53:53;;;;;;;9.32;5.00;;;;;;;9.71;100.00;101699.69;4924270;29;20044;-71
2021/12/14 03:56:19;;;;;;;11.88;4.68;;;;;;;9.77;100.00;101707.28;4920398;29;20787;-71
2021/12/14 03:58:49;;;;;;;13.40;5.28;;;;;;;9.87;100.00;101708.81;4914991;29;20110;-71
2021/12/14 04:01:27;;;;;;;12.02;5.05;;;;;;;9.93;100.00;101705.59;4914280;29;20508;-71
2021/12/14 04:04:11;;;;;;;12.57;4.43;;;;;;;9.77;100.00;101709.16;4913591;29;20607;-71
2021/12/14 04:06:41;;;;;;;14.63;4.57;;;;;;;9.74;100.00;101707.09;4932517;29;20044;-71
2021/12/14 04:09:11;;;;;;;10.83;4.83;;;;;;;9.69;100.00;101712.69;4911290;29;20043;-71
2021/12/14 04:11:37;;;;;;;16.35;5.22;;;;;;;9.67;100.00;101714.91;4915757;29;20048;-71
2021/12/14 04:14:03;;;;;;;14.50;5.20;;;;;;;9.76;100.00;101711.06;4914183;29;20370;-71
2021/12/14 04:16:41;;;;;;;10.57;4.72;;;;;;;9.80;100.00;101712.00;4914803;29;20054;-71
2021/12/14 04:19:10;;;;;;;10.77;4.50;;;;;;;9.78;100.00;101700.75;4928742;29;20406;-71
2021/12/14 04:21:39;;;;;;;9.68;4.88;;;;;;;9.68;100.00;101695.75;4914044;29;20067;-71
2021/12/14 04:24:09;;;;;;;11.63;4.95;;;;;;;9.71;100.00;101695.09;4913504;29;20130;-71
2021/12/14 04:26:36;;;;;;;13.15;5.78;;;;;;;9.75;100.00;101703.31;4915740;29;20044;-71
2021/12/14 04:29:04;;;;;;;11.05;4.93;;;;;;;9.83;100.00;101697.88;4914188;29;20122;-71
2021/12/14 04:31:35;;;;;;;14.05;5.85;;;;;;;9.91;100.00;101696.28;4982972;28;20042;-71
2021/12/14 04:34:01;;;;;;;11.63;5.05;;;;;;;9.79;100.00;101690.81;4991079;28;20034;-71
2021/12/14 04:36:28;;;;;;;13.27;4.88;;;;;;;9.80;100.00;101689.69;4985842;28;20391;-72
2021/12/14 04:39:28;;;;;;;14.15;5.22;;;;;;;9.72;100.00;101685.13;4987598;28;20037;-71
2021/12/14 04:53:02;;;;;;;9.00;4.00;;;;;;;9.83;100.00;101683.66;4943602;28;20038;-72
2021/12/14 04:55:29;;;;;;;12.23;4.75;;;;;;;9.75;100.00;101671.03;4987236;28;20042;-71
2021/12/14 04:57:56;;;;;;;13.43;4.35;;;;;;;9.75;100.00;101676.41;5001059;28;20057;-71
2021/12/14 05:00:28;;;;;;;9.32;4.75;;;;;;;9.75;100.00;101673.72;4988976;28;20557;-71
2021/12/14 05:03:11;;;;;;;10.15;4.47;;;;;;;9.72;100.00;101675.16;5002908;28;20026;-71
2021/12/14 05:05:46;;;;;;;11.05;4.95;;;;;;;9.67;100.00;101667.28;4985548;28;20035;-72
2021/12/14 05:10:55;;;;;;;11.48;4.35;;;;;;;9.78;100.00;101668.50;4985368;28;20042;-71
2021/12/14 05:13:33;;;;;;;10.55;5.18;;;;;;;9.67;100.00;101683.41;4982804;28;20081;-72
2021/12/14 05:15:58;;;;;;;13.57;4.65;;;;;;;9.66;100.00;101684.50;4989197;28;20089;-72
2021/12/14 05:18:25;;;;;;;11.75;4.38;;;;;;;9.67;100.00;101683.41;4986174;28;20041;-71
2021/12/14 05:20:52;;;;;;;14.57;5.43;;;;;;;9.68;100.00;101673.44;4983772;28;20053;-71
2021/12/14 05:23:26;;;;;;;9.13;4.45;;;;;;;9.61;100.00;101675.84;4984296;28;20034;-72
2021/12/14 05:25:53;;;;;;;13.63;4.72;;;;;;;9.63;100.00;101670.94;4982247;28;20030;-71
2021/12/14 05:28:20;;;;;;;10.90;4.40;;;;;;;9.69;100.00;101669.66;4996693;28;20398;-72
2021/12/14 05:30:51;;;;;;;10.82;4.15;;;;;;;9.76;100.00;101661.84;4989128;28;20042;-72
2021/12/14 05:33:38;;;;;;;11.45;4.43;;;;;;;9.68;100.00;101674.22;4985553;28;20042;-72
2021/12/14 05:36:30;;;;;;;9.40;4.30;;;;;;;9.62;100.00;101674.75;4981777;28;20042;-71
2021/12/14 05:39:04;;;;;;;8.93;4.38;;;;;;;9.57;100.00;101664.16;4984826;28;20371;-72
2021/12/14 05:44:53;;;;;;;9.18;4.22;;;;;;;9.65;100.00;101668.72;4953301;28;20038;-72
2021/12/14 05:47:20;;;;;;;13.50;4.63;;;;;;;9.66;100.00;101672.97;4986240;28;20088;-72
2021/12/14 05:49:55;;;;;;;11.60;3.95;;;;;;;9.78;100.00;101678.44;4984180;28;20026;-72
2021/12/14 05:52:25;;;;;;;9.68;4.50;;;;;;;9.69;100.00;101675.03;4986738;28;20093;-72
2021/12/14 05:54:53;;;;;;;9.80;4.10;;;;;;;9.79;100.00;101667.38;4970723;28;20495;-72
2021/12/14 05:57:22;;;;;;;7.53;3.45;;;;;;;9.63;100.00;101660.19;4984161;28;20037;-72
2021/12/14 05:59:49;;;;;;;8.15;4.53;;;;;;;9.76;100.00;101662.66;4982222;28;20044;-71
2021/12/14 06:02:19;;;;;;;11.25;3.90;;;;;;;9.80;100.00;101658.19;4979475;28;20026;-72
2021/12/14 06:04:49;;;;;;;13.57;4.10;;;;;;;9.68;100.00;101662.66;4983626;28;20053;-72
2021/12/14 06:07:16;;;;;;;9.40;4.20;;;;;;;9.64;100.00;101659.06;4985555;28;20030;-72
2021/12/14 06:09:47;;;;;;;9.45;4.03;;;;;;;9.70;100.00;101658.56;4987531;28;20080;-71
2021/12/14 06:12:29;;;;;;;10.93;4.90;;;;;;;9.63;100.00;101649.41;4990874;28;20034;-71
2021/12/14 06:14:59;;;;;;;8.20;4.05;;;;;;;9.71;100.00;101656.66;4988938;28;20428;-71
2021/12/14 06:17:32;;;;;;;11.43;4.07;;;;;;;9.81;100.00;101661.69;4988917;28;20035;-72
2021/12/14 06:20:10;;;;;;;10.00;4.25;;;;;;;9.76;100.00;101664.53;4980757;28;20043;-71
2021/12/14 06:22:37;;;;;;;8.35;3.90;;;;;;;9.95;100.00;101672.97;4988415;28;20516;-71
2021/12/14 06:25:10;;;;;;;8.80;4.05;;;;;;;9.89;100.00;101675.06;4984434;28;20045;-72
2021/12/14 06:27:36;;;;;;;8.93;3.70;;;;;;;9.84;100.00;101667.19;4997093;23;20148;-71
2021/12/14 06:30:07;;;;;;;10.27;4.35;;;;;;;9.73;100.00;101668.69;4985946;28;20045;-69
2021/12/14 06:32:39;;;;;;;9.25;4.03;;;;;;;9.67;100.00;101671.88;5015333;28;20417;-70
2021/12/14 06:35:12;;;;;;;10.35;3.88;;;;;;;9.62;100.00;101672.81;4998745;28;20037;-69
2021/12/14 06:40:34;;;;;;;12.45;3.65;;;;;;;9.64;100.00;101681.34;5011567;28;20105;-74
2021/12/14 06:43:03;;;;;;;8.88;3.92;;;;;;;9.65;100.00;101690.22;5002788;28;20049;-69
2021/12/14 06:45:34;;;;;;;7.75;3.95;;;;;;;9.58;100.00;101679.19;5005165;28;20030;-70
2021/12/14 06:48:10;;;;;;;10.65;4.40;;;;;;;9.60;100.00;101676.97;4994268;28;20080;-71
2021/12/14 06:50:44;;;;;;;10.98;4.38;;;;;;;9.63;100.00;101679.00;5000906;28;20034;-69
2021/12/14 06:53:23;;;;;;;10.32;3.75;;;;;;;9.64;100.00;101675.97;4995645;28;22027;-70
2021/12/14 06:56:11;;;;;;;9.20;3.83;;;;;;;9.63;100.00;101681.69;4982188;28;20075;-70
2021/12/14 06:59:11;;;;;;;;;;;;;;;9.57;100.00;101678.38;4998872;28;20515;-71
2021/12/14 07:02:06;;;;;;;8.43;3.53;;;;;;;9.60;100.00;101687.72;4990890;28;20011;-70
2021/12/14 07:04:39;;;;;;;8.77;4.78;;;;;;;9.67;100.00;101693.38;5012337;28;20405;-70
2021/12/14 07:07:10;;;;;;;8.27;3.05;;;;;;;9.73;100.00;101697.47;5002072;28;20026;-70
2021/12/14 07:09:39;;;;;;;7.45;3.72;;;;;;;9.63;100.00;101693.25;4999615;28;20046;-71
2021/12/14 07:12:29;;;;;;;10.30;3.70;;;;;;;9.64;100.00;101683.28;4998082;28;20084;-70
2021/12/14 07:15:03;;;;;;;11.13;4.78;;;;;;;9.66;100.00;101686.41;4996217;28;20030;-70
2021/12/14 07:17:40;;;;;;;11.10;4.32;;;;;;;9.62;100.00;101683.59;5003412;28;20033;-70
2021/12/14 07:20:11;;;;;;;10.70;4.65;;;;;;;9.64;100.00;101680.59;5002908;28;20042;-69
2021/12/14 07:22:37;;;;;;;11.63;4.55;;;;;;;9.60;100.00;101683.13;4998705;28;20041;-69
2021/12/14 07:25:36;;;;;;;13.95;4.80;;;;;;;9.68;100.00;101686.88;5000277;28;20044;-73
2021/12/14 07:28:08;;;;;;;8.15;3.15;;;;;;;9.69;100.00;101683.88;4977509;28;20644;-72
2021/12/14 07:30:42;;;;;;;11.48;3.83;;;;;;;9.59;100.00;101684.25;4997784;28;20042;-70
2021/12/14 07:33:24;;;;;;;8.48;3.70;;;;;;;9.56;100.00;101689.47;5001035;28;20034;-73
2021/12/14 07:36:11;;;;;;;7.38;3.45;;;;;;;9.60;100.00;101691.19;4996234;28;20038;-70
2021/12/14 07:38:55;;;;;;;10.27;3.67;;;;;;;9.64;100.00;101694.03;4996380;28;20399;-70
2021/12/14 07:41:31;;;;;;;8.38;3.92;;;;;;;9.61;100.00;101702.72;5002527;28;20034;-70
2021/12/14 07:44:05;;;;;;;9.80;3.92;;;;;;;9.56;100.00;101702.91;4997504;28;20038;-69
2021/12/14 07:46:45;;;;;;;8.75;3.83;;;;;;;9.55;100.00;101702.13;4994369;28;20437;-70
2021/12/14 07:49:40;;;;;;;11.18;4.38;;;;;;;9.57;100.00;101707.16;4998743;28;20037;-70
2021/12/14 07:52:14;;;;;;;8.48;3.90;;;;;;;9.66;100.00;101705.22;5000579;28;20128;-72
2021/12/14 07:54:47;;;;;;;7.82;4.18;;;;;;;9.71;100.00;101710.44;5001459;28;20041;-70
2021/12/14 07:57:23;;;;;;;9.65;3.50;;;;;;;9.65;100.00;101717.91;5002334;28;20394;-71
2021/12/14 07:59:49;;;;;;;9.98;3.85;;;;;;;9.77;100.00;101723.41;5000773;28;20045;-70
2021/12/14 08:02:22;;;;;;;9.05;3.33;;;;;;;9.87;100.00;101727.66;5002161;28;20052;-70
2021/12/14 08:04:59;;;;;;;12.18;4.30;;;;;;;9.79;100.00;101731.91;5000173;28;20044;-71
2021/12/14 08:07:30;;;;;;;8.15;3.65;;;;;;;9.69;100.00;101729.59;4998674;28;20038;-69
2021/12/14 08:10:13;;;;;;;9.52;4.15;;;;;;;9.80;100.00;101730.03;4998127;28;20049;-69
2021/12/14 08:12:41;;;;;;;10.60;4.38;;;;;;;9.80;100.00;101741.59;4999112;28;20438;-70
2021/12/14 08:15:42;;;;;;;10.60;4.10;;;;;;;10.02;100.00;101744.03;4995468;28;20757;-70
2021/12/14 08:18:25;;;;;;;8.82;3.80;;;;;;;9.89;100.00;101750.41;5002729;28;20054;-71
2021/12/14 08:21:06;;;;;;;7.15;3.15;;;;;;;9.77;100.00;101750.31;4995275;28;20035;-69
2021/12/14 08:23:39;;;;;;;;;;;;;;;9.71;100.00;101745.41;4995836;28;20096;-70
2021/12/14 08:26:17;;;;;;;8.70;3.45;;;;;;;9.87;100.00;101747.25;4998991;28;19951;-70
2021/12/14 08:28:51;;;;;;;7.57;3.88;;;;;;;9.82;100.00;101733.97;4995677;28;20123;-70
2021/12/14 08:31:17;;;;;;;7.80;3.35;;;;;;;9.65;100.00;101734.03;5010077;28;20578;-70
2021/12/14 08:33:46;;;;;;;10.13;4.22;;;;;;;9.77;100.00;101731.47;4995414;28;20073;-69
2021/12/14 08:36:13;;;;;;;11.60;4.78;;;;;;;9.75;100.00;101730.22;4992741;28;20049;-70
2021/12/14 08:38:39;;;;;;;8.95;3.60;;;;;;;9.69;100.00;101726.91;4992657;28;20121;-69
2021/12/14 08:41:19;;;;;;;10.63;3.92;;;;;;;9.65;100.00;101725.19;4996917;28;20185;-69
2021/12/14 08:43:50;;;;;;;10.55;4.47;;;;;;;9.70;100.00;101728.47;4995759;28;20034;-70
2021/12/14 08:46:25;;;;;;;9.48;3.58;;;;;;;9.78;100.00;101722.28;4998626;28;20483;-70
2021/12/14 08:48:55;;;;;;;9.95;4.20;;;;;;;9.87;100.00;101730.34;4996504;28;20034;-69
2021/12/14 08:51:26;;;;;;;14.95;4.07;;;;;;;9.86;100.00;101739.50;4999501;28;20041;-68
2021/12/14 08:53:56;;;;;;;10.75;4.13;;;;;;;9.96;100.00;101739.16;4998778;28;20176;-69
2021/12/14 08:56:25;;;;;;;9.45;4.68;;;;;;;9.85;100.00;101736.00;5000663;28;20572;-69
2021/12/14 08:58:51;;;;;;;12.20;4.10;;;;;;;9.89;100.00;101742.34;5000092;28;20034;-69
2021/12/14 09:01:22;;;;;;;12.40;4.28;;;;;;;10.04;100.00;101744.47;4995129;28;20057;-70
2021/12/14 09:03:55;;;;;;;20.10;5.90;;;;;;;9.96;100.00;101739.16;4998122;28;20042;-70
2021/12/14 09:06:28;;;;;;;14.82;4.70;;;;;;;10.10;100.00;101744.34;5000750;28;20029;-70
2021/12/14 09:08:54;;;;;;;16.52;5.68;;;;;;;9.97;100.00;101746.09;5001502;28;20041;-70
2021/12/14 09:11:24;;;;;;;15.50;5.55;;;;;;;9.93;100.00;101748.66;5004029;28;20034;-70
2021/12/14 09:13:51;;;;;;;16.42;5.03;;;;;;;10.01;100.00;101755.09;4996266;28;20062;-70
2021/12/14 09:16:25;;;;;;;12.52;4.72;;;;;;;9.91;100.00;101742.03;4997925;28;20026;-70
2021/12/14 09:18:56;;;;;;;8.95;4.53;;;;;;;9.90;100.00;101741.22;4998420;28;20032;-69
2021/12/14 09:21:29;;;;;;;13.70;5.05;;;;;;;9.84;100.00;101739.03;4995429;28;20081;-70
2021/12/14 09:24:00;;;;;;;16.58;5.43;;;;;;;9.86;100.00;101745.69;4998698;28;20073;-69
2021/12/14 09:26:31;;;;;;;15.20;5.22;;;;;;;9.94;100.00;101741.38;5000992;28;20074;-69
2021/12/14 09:28:57;;;;;;;12.23;4.72;;;;;;;9.88;100.00;101742.66;4999701;28;20500;-70
2021/12/14 09:31:27;;;;;;;18.33;5.15;;;;;;;9.94;100.00;101733.31;5000088;28;20049;-69
2021/12/14 09:33:58;;;;;;;13.65;4.68;;;;;;;9.93;100.00;101739.78;4998090;28;20034;-69
2021/12/14 09:36:24;;;;;;;18.00;5.68;;;;;;;10.00;100.00;101735.50;4998712;28;20033;-68
2021/12/14 09:38:55;;;;;;;12.63;4.68;;;;;;;9.90;100.00;101735.84;4995375;28;20438;-69
2021/12/14 09:41:27;;;;;;;16.58;5.30;;;;;;;9.83;100.00;101742.84;4999806;28;20084;-69
2021/12/14 09:43:54;;;;;;;14.38;4.93;;;;;;;9.99;100.00;101741.19;4998426;28;20066;-69
2021/12/14 09:46:21;;;;;;;13.23;4.90;;;;;;;9.99;100.00;101746.56;4998190;28;20034;-70
2021/12/14 09:48:54;;;;;;;13.82;5.10;;;;;;;9.87;100.00;101744.56;4998603;28;20221;-70
2021/12/14 09:51:24;;;;;;;11.52;4.43;;;;;;;9.96;100.00;101753.41;5001285;28;20534;-70
2021/12/14 09:53:53;;;;;;;15.50;5.38;;;;;;;9.88;100.00;101748.03;5005808;28;20516;-70
2021/12/14 09:56:27;;;;;;;13.70;5.32;;;;;;;9.92;100.00;101749.78;5000398;28;20061;-70
2021/12/14 09:58:58;;;;;;;12.73;5.13;;;;;;;10.02;100.00;101746.72;5006561;28;20039;-70
2021/12/14 10:01:53;;;;;;;;;;;;;;;10.06;100.00;101756.84;5000881;28;20073;-70
2021/12/14 10:04:27;;;;;;;13.15;4.22;;;;;;;10.08;100.00;101766.16;4991541;28;19924;-70
2021/12/14 10:06:55;;;;;;;10.48;4.45;;;;;;;10.38;100.00;101767.78;5000967;28;20026;-70
2021/12/14 10:09:26;;;;;;;12.38;4.60;;;;;;;10.13;100.00;101767.91;5005803;28;20046;-70
2021/12/14 10:12:17;;;;;;;17.73;5.25;;;;;;;10.07;100.00;101764.56;4999536;28;20123;-70
2021/12/14 10:14:44;;;;;;;12.98;5.07;;;;;;;10.32;100.00;101752.13;5000026;28;20141;-70
2021/12/14 10:17:14;;;;;;;15.80;5.38;;;;;;;10.09;100.00;101758.88;5003424;28;20042;-69
2021/12/14 10:19:43;;;;;;;12.82;4.65;;;;;;;10.15;100.00;101761.09;4996467;28;20034;-70
2021/12/14 10:22:15;;;;;;;17.17;4.97;;;;;;;10.11;100.00;101765.53;4997067;28;20173;-70
2021/12/14 10:24:41;;;;;;;13.60;4.70;;;;;;;10.06;100.00;101757.63;5004407;28;20030;-70
2021/12/14 10:27:17;;;;;;;12.73;5.35;;;;;;;9.92;100.00;101770.50;5003165;28;20042;-70
2021/12/14 10:29:44;;;;;;;13.55;5.47;;;;;;;10.07;100.00;101763.78;4993735;28;20107;-70
2021/12/14 10:32:19;;;;;;;13.20;4.78;;;;;;;10.03;100.00;101755.56;5002890;28;20038;-70
2021/12/14 10:34:48;;;;;;;12.35;5.57;;;;;;;10.22;100.00;101764.06;4999449;28;20100;-70
2021/12/14 10:37:27;;;;;;;12.73;5.63;;;;;;;10.13;100.00;101749.06;4998713;28;20491;-70
2021/12/14 10:45:07;;;;;;;13.52;5.95;;;;;;;10.29;100.00;101752.78;5006340;28;20038;-70
2021/12/14 10:47:33;;;;;;;18.23;5.75;;;;;;;10.33;100.00;101751.03;5000453;28;20573;-70
2021/12/14 10:50:02;;;;;;;12.10;4.63;;;;;;;10.15;100.00;101747.63;5004073;28;20029;-70
2021/12/14 10:52:32;;;;;;;18.35;5.05;;;;;;;10.14;100.00;101750.66;5000519;28;20076;-70
2021/12/14 10:55:05;;;;;;;16.70;5.93;;;;;;;10.36;100.00;101745.78;5002377;28;20117;-70
2021/12/14 10:57:34;;;;;;;14.60;4.53;;;;;;;10.20;100.00;101743.97;5003910;28;20495;-70
2021/12/14 11:00:06;;;;;;;12.40;4.50;;;;;;;10.27;100.00;101755.81;5001141;28;20040;-70
2021/12/14 11:02:39;;;;;;;;;;;;;;;10.07;100.00;101758.41;5004307;28;20042;-70
2021/12/14 11:05:05;;;;;;;13.75;5.25;;;;;;;10.02;100.00;101762.06;4993557;28;19918;-70
2021/12/14 11:07:42;;;;;;;16.77;5.28;;;;;;;10.10;100.00;101753.22;5001839;28;20033;-70
2021/12/14 11:10:14;;;;;;;17.58;5.95;;;;;;;10.01;100.00;101755.09;4999443;28;20533;-69
2021/12/14 11:12:43;;;;;;;11.07;5.28;;;;;;;10.06;100.00;101760.31;5001786;28;20569;-70
2021/12/14 11:15:14;;;;;;;19.27;5.50;;;;;;;9.98;100.00;101763.84;4994061;28;20029;-70
2021/12/14 11:21:01;;;;;;;16.98;5.38;;;;;;;10.27;100.00;101782.72;5003448;28;20129;-70
2021/12/14 11:23:37;;;;;;;12.70;4.88;;;;;;;10.06;100.00;101772.97;4957979;28;20084;-71
2021/12/14 11:26:05;;;;;;;17.60;5.65;;;;;;;10.08;100.00;101774.25;4993999;28;20045;-71
2021/12/14 11:28:36;;;;;;;20.27;5.93;;;;;;;10.08;100.00;101768.06;5001560;28;20402;-71
2021/12/14 11:31:19;;;;;;;14.07;4.65;;;;;;;10.15;100.00;101769.16;5004003;28;20042;-70
2021/12/14 11:33:48;;;;;;;15.88;5.30;;;;;;;10.05;100.00;101764.09;4998393;28;20427;-70
2021/12/14 11:36:32;;;;;;;13.50;5.78;;;;;;;10.34;100.00;101755.28;5004333;28;20442;-70
2021/12/14 11:39:06;;;;;;;10.40;5.03;;;;;;;10.42;100.00;101768.72;4996372;28;20041;-70
2021/12/14 11:41:50;;;;;;;19.95;5.70;;;;;;;10.22;100.00;101769.44;5000740;28;20065;-69
2021/12/14 11:44:19;;;;;;;13.32;4.88;;;;;;;10.12;100.00;101771.72;4994847;28;20410;-69
2021/12/14 11:46:46;;;;;;;15.82;5.20;;;;;;;10.14;100.00;101782.94;4998387;28;20030;-70
2021/12/14 11:49:12;;;;;;;12.90;6.07;;;;;;;10.12;100.00;101793.25;4995170;28;20384;-70
2021/12/14 11:51:38;;;;;;;13.98;5.63;;;;;;;10.12;100.00;101787.88;5000030;28;20044;-70
2021/12/14 11:54:06;;;;;;;12.82;5.47;;;;;;;10.39;100.00;101792.81;4993489;28;20038;-70
2021/12/14 11:56:32;;;;;;;15.45;6.28;;;;;;;10.37;100.00;101792.34;5004325;28;20561;-70
2021/12/14 11:59:05;;;;;;;15.63;5.93;;;;;;;10.31;100.00;101796.31;4993852;28;20022;-70
2021/12/14 12:01:42;;;;;;;17.55;5.53;;;;;;;10.46;100.00;101796.56;4999440;28;20037;-70
2021/12/14 12:04:15;;;;;;;21.50;6.03;;;;;;;10.31;100.00;101804.41;4997835;28;20034;-70
2021/12/14 12:09:57;;;;;;;21.83;6.30;;;;;;;10.33;100.00;101799.50;5003658;28;20033;-70
2021/12/14 12:12:32;;;;;;;15.95;6.03;;;;;;;10.49;100.00;101809.38;4999014;28;20053;-69
2021/12/14 12:15:08;;;;;;;15.50;5.75;;;;;;;10.48;100.00;101802.41;4990489;28;20065;-69
2021/12/14 12:17:41;;;;;;;12.27;4.63;;;;;;;10.34;100.00;101806.44;4994764;28;20049;-70
2021/12/14 12:20:34;;;;;;;13.20;5.38;;;;;;;10.37;100.00;101793.13;4999283;28;20107;-69
2021/12/14 12:23:03;;;;;;;16.02;5.22;;;;;;;10.42;100.00;101792.16;4997689;28;20049;-69
2021/12/14 12:25:31;;;;;;;19.38;5.55;;;;;;;10.29;100.00;101785.09;5002066;28;20033;-70
2021/12/14 12:27:59;;;;;;;16.00;5.38;;;;;;;10.45;100.00;101784.19;5002250;28;20045;-69